Terminal Aerodrome Forecast
Issued by NWS Houston/Galveston, TX

Home | Current Version | Previous Version | Text Only | Print | Product List | Glossary On
Versions: 1 2 3 4 5 6 7 8 9 10 11 12 13 14 15 16 17 18
000
FTUS44 KHGX 230520
TAFGLS
TAF
KGLS 230520Z 2306/2406 19011KT P6SM SCT025 SCT250
     FM231000 20012KT P6SM VCSH SCT025
      TEMPO 2310/2313 5SM RA BKN025
     FM231600 21011KT P6SM VCSH SCT025 BKN250
     FM232000 19013KT P6SM FEW030 SCT250
     FM240100 19015KT P6SM BKN180=

USA.gov is the U.S. government's official web portal to all federal, state and local government web resources and services.